Delta, Utah Weather observations

Data are for observation ending at time listed.
 Day   Time    Ave.   Ave.  Ave.  Vector   Max.   Stn.    Total    Solar   Ave.  
  of    of     Air    Rel.  Wind   Wind    Wind   Baro.  Precip.   Rad.    Soil  
Year   Day     Temp.  Hum.  Speed  Dir.    Gust   Pres.                    Temp. 
2014   (MST)    F      %     mph   deg.    mph     mb.     in.     W/m2     F   
------------------------------------------------------------------------------
 292    6:30   42.3    69    0.0     0      0.0   861.3    0.00       0    99999.0
 292    6:40   41.8    70    0.0     0      0.0   861.3    0.00       0    99999.0
 292    6:50   41.8    71    0.4     9      1.2   861.3    0.00       2    99999.0
 292    7:00   41.8    70    0.9   351      1.9   861.4    0.00       6    99999.0
 292    7:10   42.4    68    0.5   346      1.7   861.5    0.00      10    99999.0
 292    7:20   42.5    68    0.0     0      0.0   861.6    0.00      14    99999.0
 292    7:30   42.7    69    0.0     0      0.0   861.7    0.00      23    99999.0
 292    7:40   44.0    67    0.4   258      1.3   861.8    0.00      29    99999.0
 292    7:50   45.6    64    0.5   241      1.1   862.0    0.00      38    99999.0
 292    8:00   46.6    62    0.4   149      1.9   862.1    0.00      32    99999.0
 292    8:10   47.7    61    0.7    70      1.8   862.1    0.00      28    99999.0
 292    8:20   48.7    60    0.1    61      0.9   862.2    0.00      30    99999.0
 292    8:30   49.8    57    0.2    74      1.1   862.2    0.00      32    99999.0
 292    8:40   51.2    54    0.2   170      1.2   862.3    0.00      37    99999.0
 292    8:50   52.6    53    0.7   105      1.9   862.3    0.00      98    99999.0
 292    9:00   54.0    51    0.1   196      1.4   862.3    0.00     115    99999.0
 292    9:10   54.8    50    0.5   280      1.7   862.3    0.00     174    99999.0
 292    9:20   55.9    48    0.8   162      2.0   862.3    0.00      89    99999.0
 292    9:30   56.6    48    1.0   202      2.9   862.4    0.00      64    99999.0
 292    9:40   57.2    50    1.4   220      2.4   862.4    0.00     117    99999.0
 292    9:50   57.2    53    1.6   254      3.0   862.4    0.00     138    99999.0
 292   10:00   57.5    52    1.9   260      3.9   862.4    0.00     210    99999.0
 292   10:10   58.1    50    2.5   252      4.1   862.4    0.00     175    99999.0
 292   10:20   58.8    48    1.7   211      4.1   862.4    0.00     110    99999.0
 292   10:30   59.1    48    1.9   259      4.3   862.4    0.00     312    99999.0
 292   10:40   59.8    47    1.5   240      3.7   862.3    0.00     443    99999.0
 292   10:50   60.6    46    1.7   278      4.2   862.2    0.00      63    99999.0
 292   11:00   61.2    42    1.6   282      3.6   862.2    0.00      46    99999.0
 292   11:10   62.1    42    1.4   270      4.2   862.1    0.00      44    99999.0
 292   11:20   62.8    41    2.4   254      5.3   862.1    0.00     129    99999.0
 292   11:30   63.3    39    2.0   234      4.1   862.1    0.00      71    99999.0
 292   11:40   63.9    36    2.1   203      4.1   862.0    0.00      60    99999.0
 292   11:50   64.2    36    2.5   281      5.5   862.0    0.00      54    99999.0
 292   12:00   64.8    34    1.9   262      4.2   861.8    0.00      87    99999.0
 292   12:10   65.6    33    1.7   282      5.4   861.7    0.00     208    99999.0
 292   12:20   66.2    33    1.1   306      3.0   861.6    0.00     229    99999.0
 292   12:30   67.0    33    1.8   321      4.9   861.5    0.00     455    99999.0
 292   12:40   67.4    32    2.3   303      4.8   861.3    0.00     539    99999.0
 292   12:50   68.0    32    1.1   272      3.5   861.1    0.00     535    99999.0
 292   13:00   68.5    30    1.9   278      4.5   861.0    0.00     529    99999.0
 292   13:10   69.0    29    2.3   289      6.1   860.8    0.00     521    99999.0
 292   13:20   69.6    28    2.5   348      5.9   860.7    0.00     515    99999.0
 292   13:30   70.0    28    2.7   319      4.9   860.5    0.00     506    99999.0
 292   13:40   70.3    28    2.5   287      5.1   860.5    0.00     495    99999.0
 292   13:50   70.8    27    3.0   290      5.8   860.3    0.00     482    99999.0
 292   14:00   71.2    25    3.0   275      5.8   860.2    0.00     370    99999.0
 292   14:10   71.5    24    2.7   276      7.5   860.1    0.00      87    99999.0
 292   14:20   71.6    24    1.9   281      4.4   859.9    0.00     211    99999.0
 292   14:30   72.0    24    2.2   305      4.9   859.8    0.00     339    99999.0
 292   14:40   72.5    24    2.7   308      5.3   859.8    0.00     141    99999.0
 292   14:50   72.2    23    2.8   283      5.7   859.7    0.00     142    99999.0
 292   15:00   72.6    24    2.1   296      4.6   859.7    0.00      72    99999.0
 292   15:10   72.9    24    2.0   291      3.8   859.6    0.00      81    99999.0
 292   15:20   73.1    24    2.5   270      5.2   859.5    0.00      70    99999.0
 292   15:30   73.1    24    2.4   318      4.5   859.4    0.00     101    99999.0
 292   15:40   73.4    23    1.6   282      4.0   859.4    0.00     132    99999.0
 292   15:50   73.5    23    2.3   288      4.5   859.3    0.00     179    99999.0
 292   16:00   73.7    24    1.9   312      3.8   859.3    0.00     152    99999.0
 292   16:10   73.5    23    1.4   292      4.2   859.2    0.00      68    99999.0
 292   16:20   73.3    24    1.5   302      2.8   859.1    0.00      32    99999.0
 292   16:30   73.2    24    1.7   294      3.7   859.1    0.00      32    99999.0
 292   16:40   72.9    25    1.7   300      3.6   859.1    0.00      30    99999.0
 292   16:50   72.3    25    2.0   304      4.3   859.0    0.00      25    99999.0
 292   17:00   71.8    26    1.6   307      3.7   859.0    0.00      18    99999.0
 292   17:10   71.3    27    1.1   307      1.9   859.0    0.00      17    99999.0
 292   17:20   70.8    28    1.0   306      2.0   859.0    0.00      13    99999.0
 292   17:30   70.5    29    1.1   300      2.2   859.0    0.00      12    99999.0
 292   17:40   69.3    31    0.1   309      0.7   859.1    0.00       8    99999.0
 292   17:50   67.3    34    0.0     0      0.0   859.1    0.00       4    99999.0
 292   18:00   65.0    37    0.0   348      0.7   859.1    0.00       0    99999.0
 292   18:10   64.1    38    0.2   348      1.2   859.2    0.00       0    99999.0
 292   18:20   63.6    38    0.0     0      0.0   859.3    0.00       0    99999.0
 292   18:30   62.8    38    0.0   342      0.6   859.3    0.00       0    99999.0
 292   18:40   62.5    38    0.0     0      0.0   859.4    0.00       0    99999.0
 292   18:50   62.0    38    0.0     0      0.0   859.5    0.00       0    99999.0
 292   19:00   61.2    40    0.0    15      1.2   859.6    0.00       0    99999.0
 292   19:10   61.3    40    1.3    10      2.4   859.6    0.00       0    99999.0
 292   19:20   61.2    40    1.2   349      2.0   859.6    0.00       0    99999.0
 292   19:30   60.4    41    0.1   325      0.7   859.6    0.00       0    99999.0
 292   19:40   60.5    40    0.7   343      1.8   859.7    0.00       0    99999.0
 292   19:50   60.5    40    0.3   345      1.2   859.8    0.00       0    99999.0
 292   20:00   59.9    41    0.8   219      5.2   859.8    0.00       0    99999.0
 292   20:10   58.3    45    1.9   143      3.9   860.0    0.00       0    99999.0
 292   20:20   57.0    45    1.3   104      2.9   860.1    0.00       0    99999.0
 292   20:30   56.8    44    0.5   198      2.3   860.1    0.00       0    99999.0
 292   20:40   56.1    45    0.0     0      0.0   860.1    0.00       0    99999.0
 292   20:50   55.9    46    0.5   280      1.6   860.2    0.00       0    99999.0
 292   21:00   55.5    48    0.4   305      1.5   860.2    0.00       0    99999.0
 292   21:10   54.8    50    0.3   315      1.2   860.2    0.00       0    99999.0
 292   21:20   54.3    51    0.3   144      1.6   860.3    0.00       0    99999.0
 292   21:30   54.0    51    0.0     0      0.0   860.2    0.00       0    99999.0
 292   21:40   53.5    52    0.0     0      0.0   860.3    0.00       0    99999.0
 292   21:50   52.8    53    0.0     0      0.0   860.3    0.00       0    99999.0
 292   22:00   53.0    52    0.1   164      1.0   860.3    0.00       0    99999.0
 292   22:10   53.9    51    1.7   197      3.1   860.4    0.00       0    99999.0
 292   22:20   53.3    52    1.0   200      1.9   860.4    0.00       0    99999.0
 292   22:30   52.4    54    0.3   204      1.4   860.4    0.00       0    99999.0
 292   22:40   51.5    57    0.2     0      1.2   860.3    0.00       0    99999.0
 292   22:50   50.9    59    0.5    96      1.3   860.4    0.00       0    99999.0
 292   23:00   50.7    59    0.4    88      1.1   860.4    0.00       0    99999.0
 292   23:10   50.4    60    1.3    14      2.9   860.4    0.00       0    99999.0
 292   23:20   49.9    61    0.4     5      2.0   860.4    0.00       0    99999.0
 292   23:30   49.4    62    0.0     0      0.0   860.3    0.00       0    99999.0
 292   23:40   49.3    62    0.0     0      0.0   860.3    0.00       0    99999.0
 292   23:50   49.2    62    0.1     0      0.7   860.2    0.00       0    99999.0
 293    0:00   49.3    63    0.9   353      1.8   860.1    0.00       0    99999.0
 293    0:10   49.4    62    0.2   344      1.5   860.1    0.00       0    99999.0
 293    0:20   49.3    61    0.6   346      1.2   860.0    0.00       0    99999.0
 293    0:30   49.3    60    0.3    22      1.3   859.9    0.00       0    99999.0
 293    0:40   49.2    61    0.2    26      0.9   860.0    0.00       0    99999.0
 293    0:50   49.3    61    0.9    10      1.9   859.9    0.00       0    99999.0
 293    1:00   49.4    59    0.1   350      0.9   860.0    0.00       0    99999.0
 293    1:10   49.8    59    0.3   260      1.9   860.0    0.00       0    99999.0
 293    1:20   50.4    58    0.8   256      2.1   860.1    0.00       0    99999.0
 293    1:30   50.4    57    0.9   272      2.3   860.1    0.00       0    99999.0
 293    1:40   50.0    59    0.6   283      2.3   860.2    0.00       0    99999.0
 293    1:50   48.8    62    0.0     0      0.0   860.2    0.00       0    99999.0
 293    2:00   48.5    62    0.0     0      0.0   860.3    0.00       0    99999.0
 293    2:10   48.7    61    0.0   152      0.7   860.3    0.00       0    99999.0
 293    2:20   48.7    63    0.1   350      1.2   860.2    0.00       0    99999.0
 293    2:30   48.3    65    0.7    37      1.7   860.2    0.00       0    99999.0
 293    2:40   47.8    68    1.2    48      1.8   860.1    0.00       0    99999.0
 293    2:50   47.1    66    1.2    90      1.9   860.1    0.00       0    99999.0
 293    3:00   46.5    64    1.2   104      1.9   860.0    0.00       0    99999.0
 293    3:10   46.2    64    1.1   116      2.1   860.1    0.00       0    99999.0
 293    3:20   46.6    63    1.3   113      2.3   860.2    0.00       0    99999.0
 293    3:30   46.3    63    0.7   101      1.8   860.3    0.00       0    99999.0
 293    3:40   46.2    64    0.4    18      1.4   860.3    0.00       0    99999.0
 293    3:50   46.1    65    0.0     0      0.0   860.3    0.00       0    99999.0
 293    4:00   45.9    64    0.0     0      0.0   860.4    0.00       0    99999.0
 293    4:10   45.6    66    0.0     0      0.0   860.4    0.00       0    99999.0
 293    4:20   45.7    66    0.0     0      0.0   860.5    0.00       0    99999.0
 293    4:30   46.0    66    0.0     0      0.0   860.5    0.00       0    99999.0
 293    4:40   45.5    66    0.6   115      1.8   860.5    0.00       0    99999.0
 293    4:50   45.3    66    1.0   122      2.0   860.6    0.00       0    99999.0
 293    5:00   44.8    66    1.7   140      2.3   860.7    0.00       0    99999.0
 293    5:10   44.4    67    1.1   138      1.8   860.7    0.00       0    99999.0
 293    5:20   44.6    67    1.8   140      2.5   860.7    0.00       0    99999.0
 293    5:30   44.8    67    1.9   137      2.9   860.7    0.00       0    99999.0
 293    5:40   44.5    68    0.6   121      1.8   860.6    0.00       0    99999.0
 293    5:50   44.1    69    0.3   126      1.2   860.7    0.00       0    99999.0
 293    6:00   43.9    70    1.2    97      2.0   860.7    0.00       0    99999.0
 293    6:10   43.7    70    0.8    92      2.1   860.8    0.00       0    99999.0
 293    6:20   43.6    70    0.0     0      0.0   860.7    0.00       0    99999.0

Return to Delta, Utah graphs page.


Western Regional Climate Center,wrcc@dri.edu